sensor_id;sensor_type;location;lat;lon;timestamp;P1;durP1;ratioP1;P2;durP2;ratioP2
67049;SDS011;53955;52.442;13.284;2022-10-20T00:01:14;6.13;;;2.83;;
67049;SDS011;53955;52.442;13.284;2022-10-20T00:03:42;4.80;;;3.03;;
67049;SDS011;53955;52.442;13.284;2022-10-20T00:06:10;5.80;;;2.93;;
67049;SDS011;53955;52.442;13.284;2022-10-20T00:08:38;5.03;;;3.00;;
67049;SDS011;53955;52.442;13.284;2022-10-20T00:11:06;4.33;;;2.63;;
67049;SDS011;53955;52.442;13.284;2022-10-20T00:13:35;5.43;;;2.60;;
67049;SDS011;53955;52.442;13.284;2022-10-20T00:16:02;4.10;;;2.33;;
67049;SDS011;53955;52.442;13.284;2022-10-20T00:18:29;7.57;;;2.80;;
67049;SDS011;53955;52.442;13.284;2022-10-20T00:20:56;5.23;;;3.20;;
67049;SDS011;53955;52.442;13.284;2022-10-20T00:23:23;3.73;;;2.40;;
67049;SDS011;53955;52.442;13.284;2022-10-20T00:25:58;5.27;;;3.17;;
67049;SDS011;53955;52.442;13.284;2022-10-20T00:28:26;5.87;;;2.90;;
67049;SDS011;53955;52.442;13.284;2022-10-20T00:30:54;5.23;;;2.67;;
67049;SDS011;53955;52.442;13.284;2022-10-20T00:33:20;4.43;;;2.87;;
67049;SDS011;53955;52.442;13.284;2022-10-20T00:35:47;3.70;;;2.77;;
67049;SDS011;53955;52.442;13.284;2022-10-20T00:38:14;4.83;;;2.73;;
67049;SDS011;53955;52.442;13.284;2022-10-20T00:40:40;3.27;;;2.40;;
67049;SDS011;53955;52.442;13.284;2022-10-20T00:43:08;5.63;;;2.53;;
67049;SDS011;53955;52.442;13.284;2022-10-20T00:45:35;4.77;;;2.73;;
67049;SDS011;53955;52.442;13.284;2022-10-20T00:48:05;4.80;;;2.80;;
67049;SDS011;53955;52.442;13.284;2022-10-20T00:50:38;4.40;;;2.70;;
67049;SDS011;53955;52.442;13.284;2022-10-20T00:53:06;4.23;;;2.70;;
67049;SDS011;53955;52.442;13.284;2022-10-20T00:55:34;4.60;;;2.73;;
67049;SDS011;53955;52.442;13.284;2022-10-20T00:58:03;6.67;;;3.00;;
67049;SDS011;53955;52.442;13.284;2022-10-20T01:00:30;4.17;;;2.53;;
67049;SDS011;53955;52.442;13.284;2022-10-20T01:02:56;3.80;;;2.57;;
67049;SDS011;53955;52.442;13.284;2022-10-20T01:05:27;4.73;;;2.40;;
67049;SDS011;53955;52.442;13.284;2022-10-20T01:07:53;4.17;;;2.63;;
67049;SDS011;53955;52.442;13.284;2022-10-20T01:10:20;4.43;;;2.57;;
67049;SDS011;53955;52.442;13.284;2022-10-20T01:12:52;6.63;;;2.60;;
67049;SDS011;53955;52.442;13.284;2022-10-20T01:15:27;4.60;;;2.27;;
67049;SDS011;53955;52.442;13.284;2022-10-20T01:18:00;3.60;;;2.33;;
67049;SDS011;53955;52.442;13.284;2022-10-20T01:20:48;4.80;;;2.70;;
67049;SDS011;53955;52.442;13.284;2022-10-20T01:23:56;7.10;;;2.53;;
67049;SDS011;53955;52.442;13.284;2022-10-20T01:26:39;4.87;;;2.53;;
67049;SDS011;53955;52.442;13.284;2022-10-20T01:29:25;4.50;;;2.10;;
67049;SDS011;53955;52.442;13.284;2022-10-20T01:31:57;3.73;;;2.40;;
67049;SDS011;53955;52.442;13.284;2022-10-20T01:34:31;3.93;;;2.70;;
67049;SDS011;53955;52.442;13.284;2022-10-20T01:37:04;4.40;;;2.50;;
67049;SDS011;53955;52.442;13.284;2022-10-20T01:39:35;3.83;;;2.20;;
67049;SDS011;53955;52.442;13.284;2022-10-20T01:42:13;4.53;;;2.10;;
67049;SDS011;53955;52.442;13.284;2022-10-20T01:44:45;6.37;;;2.43;;
67049;SDS011;53955;52.442;13.284;2022-10-20T01:47:14;4.13;;;2.60;;
67049;SDS011;53955;52.442;13.284;2022-10-20T01:49:41;5.30;;;2.37;;
67049;SDS011;53955;52.442;13.284;2022-10-20T01:52:09;3.47;;;2.30;;
67049;SDS011;53955;52.442;13.284;2022-10-20T01:54:36;4.93;;;2.60;;
67049;SDS011;53955;52.442;13.284;2022-10-20T01:57:07;4.80;;;2.67;;
67049;SDS011;53955;52.442;13.284;2022-10-20T01:59:48;4.27;;;2.00;;
67049;SDS011;53955;52.442;13.284;2022-10-20T02:02:30;3.73;;;2.60;;
67049;SDS011;53955;52.442;13.284;2022-10-20T02:05:12;5.10;;;2.40;;
67049;SDS011;53955;52.442;13.284;2022-10-20T02:07:51;4.40;;;2.70;;
67049;SDS011;53955;52.442;13.284;2022-10-20T02:10:26;4.23;;;2.40;;
67049;SDS011;53955;52.442;13.284;2022-10-20T02:12:57;3.83;;;2.40;;
67049;SDS011;53955;52.442;13.284;2022-10-20T02:15:27;4.00;;;2.40;;
67049;SDS011;53955;52.442;13.284;2022-10-20T02:17:58;4.47;;;2.60;;
67049;SDS011;53955;52.442;13.284;2022-10-20T02:20:28;8.30;;;2.50;;
67049;SDS011;53955;52.442;13.284;2022-10-20T02:22:56;5.10;;;2.87;;
67049;SDS011;53955;52.442;13.284;2022-10-20T02:25:24;5.07;;;2.63;;
67049;SDS011;53955;52.442;13.284;2022-10-20T02:27:53;3.73;;;2.10;;
67049;SDS011;53955;52.442;13.284;2022-10-20T02:30:22;5.13;;;3.23;;
67049;SDS011;53955;52.442;13.284;2022-10-20T02:32:50;4.63;;;2.90;;
67049;SDS011;53955;52.442;13.284;2022-10-20T02:35:18;5.13;;;2.30;;
67049;SDS011;53955;52.442;13.284;2022-10-20T02:37:48;5.97;;;2.77;;
67049;SDS011;53955;52.442;13.284;2022-10-20T02:40:15;4.70;;;2.50;;
67049;SDS011;53955;52.442;13.284;2022-10-20T02:42:42;4.70;;;2.47;;
67049;SDS011;53955;52.442;13.284;2022-10-20T02:45:09;5.50;;;2.60;;
67049;SDS011;53955;52.442;13.284;2022-10-20T02:47:35;4.67;;;2.80;;
67049;SDS011;53955;52.442;13.284;2022-10-20T02:50:04;4.00;;;2.70;;
67049;SDS011;53955;52.442;13.284;2022-10-20T02:52:31;4.17;;;2.70;;
67049;SDS011;53955;52.442;13.284;2022-10-20T02:54:57;4.17;;;2.67;;
67049;SDS011;53955;52.442;13.284;2022-10-20T02:57:24;5.70;;;2.97;;
67049;SDS011;53955;52.442;13.284;2022-10-20T02:59:51;4.60;;;2.67;;
67049;SDS011;53955;52.442;13.284;2022-10-20T03:02:17;4.83;;;2.40;;
67049;SDS011;53955;52.442;13.284;2022-10-20T03:04:44;4.50;;;2.40;;
67049;SDS011;53955;52.442;13.284;2022-10-20T03:07:12;5.57;;;2.83;;
67049;SDS011;53955;52.442;13.284;2022-10-20T03:09:39;4.93;;;2.67;;
67049;SDS011;53955;52.442;13.284;2022-10-20T03:12:05;4.73;;;2.50;;
67049;SDS011;53955;52.442;13.284;2022-10-20T03:14:32;3.67;;;2.40;;
67049;SDS011;53955;52.442;13.284;2022-10-20T03:16:58;4.20;;;2.57;;
67049;SDS011;53955;52.442;13.284;2022-10-20T03:19:25;4.83;;;2.70;;
67049;SDS011;53955;52.442;13.284;2022-10-20T03:21:51;4.90;;;2.73;;
67049;SDS011;53955;52.442;13.284;2022-10-20T03:24:19;5.43;;;2.77;;
67049;SDS011;53955;52.442;13.284;2022-10-20T03:26:46;3.67;;;2.33;;
67049;SDS011;53955;52.442;13.284;2022-10-20T03:29:12;3.30;;;2.37;;
67049;SDS011;53955;52.442;13.284;2022-10-20T03:31:39;5.40;;;2.77;;
67049;SDS011;53955;52.442;13.284;2022-10-20T03:34:05;4.57;;;2.83;;
67049;SDS011;53955;52.442;13.284;2022-10-20T03:36:32;5.10;;;2.60;;
67049;SDS011;53955;52.442;13.284;2022-10-20T03:38:59;3.87;;;2.50;;
67049;SDS011;53955;52.442;13.284;2022-10-20T03:41:27;6.93;;;3.20;;
67049;SDS011;53955;52.442;13.284;2022-10-20T03:43:53;4.93;;;2.77;;
67049;SDS011;53955;52.442;13.284;2022-10-20T03:46:20;5.17;;;2.90;;
67049;SDS011;53955;52.442;13.284;2022-10-20T03:48:46;4.67;;;2.80;;
67049;SDS011;53955;52.442;13.284;2022-10-20T03:51:13;4.40;;;2.50;;
67049;SDS011;53955;52.442;13.284;2022-10-20T03:53:40;9.30;;;3.10;;
67049;SDS011;53955;52.442;13.284;2022-10-20T03:56:07;4.60;;;2.97;;
67049;SDS011;53955;52.442;13.284;2022-10-20T03:58:37;4.93;;;3.13;;
67049;SDS011;53955;52.442;13.284;2022-10-20T04:01:03;4.90;;;2.97;;
67049;SDS011;53955;52.442;13.284;2022-10-20T04:03:33;5.63;;;3.43;;
67049;SDS011;53955;52.442;13.284;2022-10-20T04:06:00;5.37;;;3.03;;
67049;SDS011;53955;52.442;13.284;2022-10-20T04:08:26;5.07;;;3.20;;
67049;SDS011;53955;52.442;13.284;2022-10-20T04:10:53;5.33;;;3.07;;
67049;SDS011;53955;52.442;13.284;2022-10-20T04:13:19;9.30;;;3.33;;
67049;SDS011;53955;52.442;13.284;2022-10-20T04:15:47;5.90;;;2.80;;
67049;SDS011;53955;52.442;13.284;2022-10-20T04:18:13;5.73;;;3.20;;
67049;SDS011;53955;52.442;13.284;2022-10-20T04:20:40;7.50;;;3.13;;
67049;SDS011;53955;52.442;13.284;2022-10-20T04:23:07;6.97;;;3.27;;
67049;SDS011;53955;52.442;13.284;2022-10-20T04:25:33;6.07;;;3.37;;
67049;SDS011;53955;52.442;13.284;2022-10-20T04:28:00;5.27;;;3.03;;
67049;SDS011;53955;52.442;13.284;2022-10-20T04:30:26;5.60;;;3.23;;
67049;SDS011;53955;52.442;13.284;2022-10-20T04:32:54;6.20;;;3.23;;
67049;SDS011;53955;52.442;13.284;2022-10-20T04:35:21;5.53;;;3.60;;
67049;SDS011;53955;52.442;13.284;2022-10-20T04:37:47;5.93;;;4.13;;
67049;SDS011;53955;52.442;13.284;2022-10-20T04:40:14;8.60;;;3.57;;
67049;SDS011;53955;52.442;13.284;2022-10-20T04:42:40;6.00;;;3.60;;
67049;SDS011;53955;52.442;13.284;2022-10-20T04:45:07;5.90;;;3.60;;
67049;SDS011;53955;52.442;13.284;2022-10-20T04:47:34;6.30;;;3.73;;
67049;SDS011;53955;52.442;13.284;2022-10-20T04:50:03;5.73;;;3.13;;
67049;SDS011;53955;52.442;13.284;2022-10-20T04:52:30;5.23;;;3.27;;
67049;SDS011;53955;52.442;13.284;2022-10-20T04:54:57;6.40;;;3.93;;
67049;SDS011;53955;52.442;13.284;2022-10-20T04:57:24;5.47;;;3.70;;
67049;SDS011;53955;52.442;13.284;2022-10-20T04:59:51;5.73;;;3.50;;
67049;SDS011;53955;52.442;13.284;2022-10-20T05:02:17;5.93;;;3.47;;
67049;SDS011;53955;52.442;13.284;2022-10-20T05:04:44;5.83;;;3.50;;
67049;SDS011;53955;52.442;13.284;2022-10-20T05:07:12;6.17;;;4.03;;
67049;SDS011;53955;52.442;13.284;2022-10-20T05:09:39;8.83;;;4.13;;
67049;SDS011;53955;52.442;13.284;2022-10-20T05:12:05;8.60;;;3.83;;
67049;SDS011;53955;52.442;13.284;2022-10-20T05:14:32;8.27;;;4.20;;
67049;SDS011;53955;52.442;13.284;2022-10-20T05:16:59;6.00;;;3.60;;
67049;SDS011;53955;52.442;13.284;2022-10-20T05:19:25;12.10;;;4.50;;
67049;SDS011;53955;52.442;13.284;2022-10-20T05:21:52;5.40;;;3.60;;
67049;SDS011;53955;52.442;13.284;2022-10-20T05:24:20;6.27;;;3.90;;
67049;SDS011;53955;52.442;13.284;2022-10-20T05:26:47;6.03;;;4.20;;
67049;SDS011;53955;52.442;13.284;2022-10-20T05:29:14;6.40;;;3.90;;
67049;SDS011;53955;52.442;13.284;2022-10-20T05:31:41;7.53;;;3.70;;
67049;SDS011;53955;52.442;13.284;2022-10-20T05:34:09;7.93;;;4.67;;
67049;SDS011;53955;52.442;13.284;2022-10-20T05:36:36;7.93;;;4.23;;
67049;SDS011;53955;52.442;13.284;2022-10-20T05:39:03;7.63;;;4.40;;
67049;SDS011;53955;52.442;13.284;2022-10-20T05:41:32;8.37;;;4.00;;
67049;SDS011;53955;52.442;13.284;2022-10-20T05:43:59;7.70;;;4.57;;
67049;SDS011;53955;52.442;13.284;2022-10-20T05:46:27;6.97;;;4.33;;
67049;SDS011;53955;52.442;13.284;2022-10-20T05:48:57;7.83;;;4.43;;
67049;SDS011;53955;52.442;13.284;2022-10-20T05:51:25;6.70;;;4.43;;
67049;SDS011;53955;52.442;13.284;2022-10-20T05:53:54;9.43;;;4.87;;
67049;SDS011;53955;52.442;13.284;2022-10-20T05:56:21;8.20;;;4.47;;
67049;SDS011;53955;52.442;13.284;2022-10-20T05:58:49;7.93;;;4.27;;
67049;SDS011;53955;52.442;13.284;2022-10-20T06:01:17;8.37;;;4.50;;
67049;SDS011;53955;52.442;13.284;2022-10-20T06:03:47;7.03;;;4.53;;
67049;SDS011;53955;52.442;13.284;2022-10-20T06:06:14;7.83;;;4.33;;
67049;SDS011;53955;52.442;13.284;2022-10-20T06:08:41;8.40;;;4.63;;
67049;SDS011;53955;52.442;13.284;2022-10-20T06:11:09;8.43;;;4.30;;
67049;SDS011;53955;52.442;13.284;2022-10-20T06:13:37;8.87;;;4.30;;
67049;SDS011;53955;52.442;13.284;2022-10-20T06:16:05;6.97;;;4.33;;
67049;SDS011;53955;52.442;13.284;2022-10-20T06:18:34;7.17;;;4.77;;
67049;SDS011;53955;52.442;13.284;2022-10-20T06:21:03;8.23;;;4.50;;
67049;SDS011;53955;52.442;13.284;2022-10-20T06:23:31;8.43;;;4.70;;
67049;SDS011;53955;52.442;13.284;2022-10-20T06:26:00;8.63;;;4.43;;
67049;SDS011;53955;52.442;13.284;2022-10-20T06:28:27;9.97;;;4.13;;
67049;SDS011;53955;52.442;13.284;2022-10-20T06:30:55;9.43;;;4.57;;
67049;SDS011;53955;52.442;13.284;2022-10-20T06:33:23;9.10;;;4.37;;
67049;SDS011;53955;52.442;13.284;2022-10-20T06:35:49;9.67;;;4.90;;
67049;SDS011;53955;52.442;13.284;2022-10-20T06:38:16;7.53;;;4.60;;
67049;SDS011;53955;52.442;13.284;2022-10-20T06:40:42;6.17;;;3.73;;
67049;SDS011;53955;52.442;13.284;2022-10-20T06:43:09;9.17;;;4.07;;
67049;SDS011;53955;52.442;13.284;2022-10-20T06:45:35;7.07;;;4.10;;
67049;SDS011;53955;52.442;13.284;2022-10-20T06:57:50;6.50;;;3.83;;
67049;SDS011;53955;52.442;13.284;2022-10-20T07:00:17;6.55;;;3.33;;
67049;SDS011;53955;52.442;13.284;2022-10-20T07:02:43;7.10;;;3.70;;
67049;SDS011;53955;52.442;13.284;2022-10-20T07:05:10;8.00;;;3.60;;
67049;SDS011;53955;52.442;13.284;2022-10-20T07:46:45;8.20;;;3.90;;
67049;SDS011;53955;52.442;13.284;2022-10-20T07:49:11;8.77;;;4.25;;
67049;SDS011;53955;52.442;13.284;2022-10-20T07:51:38;10.60;;;4.70;;
67049;SDS011;53955;52.442;13.284;2022-10-20T07:54:05;7.03;;;4.37;;
67049;SDS011;53955;52.442;13.284;2022-10-20T08:08:48;7.60;;;4.37;;
67049;SDS011;53955;52.442;13.284;2022-10-20T08:11:14;9.30;;;4.40;;
67049;SDS011;53955;52.442;13.284;2022-10-20T08:13:41;7.80;;;4.67;;
67049;SDS011;53955;52.442;13.284;2022-10-20T08:16:09;9.17;;;4.87;;
67049;SDS011;53955;52.442;13.284;2022-10-20T08:18:37;8.85;;;4.65;;
67049;SDS011;53955;52.442;13.284;2022-10-20T08:28:24;7.30;;;4.20;;
67049;SDS011;53955;52.442;13.284;2022-10-20T08:30:50;8.70;;;4.63;;
67049;SDS011;53955;52.442;13.284;2022-10-20T08:33:18;9.67;;;4.70;;
67049;SDS011;53955;52.442;13.284;2022-10-20T08:35:44;7.40;;;4.07;;
67049;SDS011;53955;52.442;13.284;2022-10-20T08:38:11;6.77;;;4.60;;
67049;SDS011;53955;52.442;13.284;2022-10-20T08:40:38;8.53;;;4.13;;
67049;SDS011;53955;52.442;13.284;2022-10-20T08:43:09;7.45;;;3.90;;
67049;SDS011;53955;52.442;13.284;2022-10-20T08:45:41;9.37;;;4.30;;
67049;SDS011;53955;52.442;13.284;2022-10-20T08:48:07;6.80;;;4.00;;
67049;SDS011;53955;52.442;13.284;2022-10-20T08:53:12;10.50;;;3.57;;
67049;SDS011;53955;52.442;13.284;2022-10-20T08:55:38;6.70;;;3.90;;
67049;SDS011;53955;52.442;13.284;2022-10-20T08:58:10;7.53;;;4.27;;
67049;SDS011;53955;52.442;13.284;2022-10-20T09:00:39;5.50;;;3.77;;
67049;SDS011;53955;52.442;13.284;2022-10-20T09:03:12;7.57;;;4.37;;
67049;SDS011;53955;52.442;13.284;2022-10-20T09:05:42;6.25;;;3.60;;
67049;SDS011;53955;52.442;13.284;2022-10-20T09:08:13;8.40;;;4.00;;
67049;SDS011;53955;52.442;13.284;2022-10-20T09:10:40;7.50;;;4.03;;
67049;SDS011;53955;52.442;13.284;2022-10-20T09:13:15;7.37;;;4.67;;
67049;SDS011;53955;52.442;13.284;2022-10-20T09:15:45;7.77;;;4.17;;
67049;SDS011;53955;52.442;13.284;2022-10-20T09:18:13;6.37;;;3.70;;
67049;SDS011;53955;52.442;13.284;2022-10-20T09:20:42;6.17;;;4.00;;
67049;SDS011;53955;52.442;13.284;2022-10-20T09:23:13;8.57;;;3.97;;
67049;SDS011;53955;52.442;13.284;2022-10-20T09:25:40;6.30;;;3.80;;
67049;SDS011;53955;52.442;13.284;2022-10-20T09:28:15;8.37;;;4.20;;
67049;SDS011;53955;52.442;13.284;2022-10-20T09:30:46;6.90;;;4.30;;
67049;SDS011;53955;52.442;13.284;2022-10-20T09:33:19;7.17;;;4.23;;
67049;SDS011;53955;52.442;13.284;2022-10-20T09:35:49;7.53;;;4.20;;
67049;SDS011;53955;52.442;13.284;2022-10-20T09:38:17;11.53;;;4.97;;
67049;SDS011;53955;52.442;13.284;2022-10-20T09:40:53;5.63;;;3.70;;
67049;SDS011;53955;52.442;13.284;2022-10-20T09:43:25;6.10;;;3.67;;
67049;SDS011;53955;52.442;13.284;2022-10-20T09:45:53;8.80;;;4.13;;
67049;SDS011;53955;52.442;13.284;2022-10-20T09:48:23;7.73;;;3.83;;
67049;SDS011;53955;52.442;13.284;2022-10-20T09:50:54;6.40;;;3.27;;
67049;SDS011;53955;52.442;13.284;2022-10-20T09:53:23;5.03;;;3.90;;
67049;SDS011;53955;52.442;13.284;2022-10-20T09:55:52;5.87;;;3.47;;
67049;SDS011;53955;52.442;13.284;2022-10-20T09:58:21;7.50;;;3.67;;
67049;SDS011;53955;52.442;13.284;2022-10-20T10:00:56;5.23;;;3.30;;
67049;SDS011;53955;52.442;13.284;2022-10-20T10:03:25;5.30;;;3.33;;
67049;SDS011;53955;52.442;13.284;2022-10-20T10:05:52;8.10;;;3.03;;
67049;SDS011;53955;52.442;13.284;2022-10-20T10:08:21;5.50;;;3.20;;
67049;SDS011;53955;52.442;13.284;2022-10-20T10:10:59;6.90;;;3.50;;
67049;SDS011;53955;52.442;13.284;2022-10-20T10:13:28;12.93;;;3.90;;
67049;SDS011;53955;52.442;13.284;2022-10-20T10:15:57;6.37;;;3.37;;
67049;SDS011;53955;52.442;13.284;2022-10-20T10:18:31;6.63;;;3.53;;
67049;SDS011;53955;52.442;13.284;2022-10-20T10:21:02;5.13;;;3.10;;
67049;SDS011;53955;52.442;13.284;2022-10-20T10:23:32;4.33;;;2.67;;
67049;SDS011;53955;52.442;13.284;2022-10-20T10:26:00;5.33;;;3.30;;
67049;SDS011;53955;52.442;13.284;2022-10-20T10:28:29;6.33;;;3.17;;
67049;SDS011;53955;52.442;13.284;2022-10-20T10:31:06;5.85;;;3.05;;
67049;SDS011;53955;52.442;13.284;2022-10-20T10:33:48;5.83;;;3.27;;
67049;SDS011;53955;52.442;13.284;2022-10-20T10:36:20;5.80;;;3.37;;
67049;SDS011;53955;52.442;13.284;2022-10-20T10:38:53;5.23;;;3.20;;
67049;SDS011;53955;52.442;13.284;2022-10-20T10:41:21;5.57;;;3.17;;
67049;SDS011;53955;52.442;13.284;2022-10-20T10:43:59;4.93;;;3.30;;
67049;SDS011;53955;52.442;13.284;2022-10-20T10:46:33;5.43;;;2.90;;
67049;SDS011;53955;52.442;13.284;2022-10-20T10:49:09;6.53;;;3.00;;
67049;SDS011;53955;52.442;13.284;2022-10-20T10:51:58;5.43;;;3.20;;
67049;SDS011;53955;52.442;13.284;2022-10-20T10:54:34;7.07;;;3.90;;
67049;SDS011;53955;52.442;13.284;2022-10-20T10:57:12;6.70;;;3.00;;
67049;SDS011;53955;52.442;13.284;2022-10-20T10:59:43;7.53;;;3.78;;
67049;SDS011;53955;52.442;13.284;2022-10-20T11:02:18;4.17;;;2.60;;
67049;SDS011;53955;52.442;13.284;2022-10-20T11:05:09;4.00;;;2.45;;
67049;SDS011;53955;52.442;13.284;2022-10-20T11:07:50;5.25;;;3.00;;
67049;SDS011;53955;52.442;13.284;2022-10-20T11:10:25;5.47;;;3.08;;
67049;SDS011;53955;52.442;13.284;2022-10-20T11:12:58;5.00;;;2.90;;
67049;SDS011;53955;52.442;13.284;2022-10-20T11:15:38;5.70;;;3.03;;
67049;SDS011;53955;52.442;13.284;2022-10-20T11:18:21;3.30;;;2.30;;
67049;SDS011;53955;52.442;13.284;2022-10-20T11:21:06;5.90;;;2.80;;
67049;SDS011;53955;52.442;13.284;2022-10-20T11:23:51;5.03;;;2.50;;
67049;SDS011;53955;52.442;13.284;2022-10-20T11:26:26;5.80;;;2.65;;
67049;SDS011;53955;52.442;13.284;2022-10-20T11:28:56;2.97;;;2.08;;
67049;SDS011;53955;52.442;13.284;2022-10-20T11:31:25;4.35;;;2.30;;
67049;SDS011;53955;52.442;13.284;2022-10-20T11:33:56;3.47;;;2.30;;
67049;SDS011;53955;52.442;13.284;2022-10-20T11:36:30;4.90;;;2.60;;
67049;SDS011;53955;52.442;13.284;2022-10-20T11:39:01;4.47;;;2.30;;
67049;SDS011;53955;52.442;13.284;2022-10-20T11:41:31;4.60;;;2.40;;
67049;SDS011;53955;52.442;13.284;2022-10-20T11:44:01;6.43;;;2.15;;
67049;SDS011;53955;52.442;13.284;2022-10-20T11:46:33;3.40;;;2.00;;
67049;SDS011;53955;52.442;13.284;2022-10-20T11:49:04;4.88;;;2.75;;
67049;SDS011;53955;52.442;13.284;2022-10-20T11:51:44;3.03;;;2.30;;
67049;SDS011;53955;52.442;13.284;2022-10-20T11:57:32;6.05;;;2.33;;
67049;SDS011;53955;52.442;13.284;2022-10-20T12:00:12;4.15;;;2.50;;
67049;SDS011;53955;52.442;13.284;2022-10-20T12:03:04;4.47;;;2.10;;
67049;SDS011;53955;52.442;13.284;2022-10-20T12:06:05;3.55;;;2.22;;
67049;SDS011;53955;52.442;13.284;2022-10-20T12:08:49;2.95;;;2.05;;
67049;SDS011;53955;52.442;13.284;2022-10-20T12:11:30;3.83;;;2.45;;
67049;SDS011;53955;52.442;13.284;2022-10-20T12:14:05;3.83;;;2.42;;
67049;SDS011;53955;52.442;13.284;2022-10-20T12:19:37;4.28;;;2.30;;
67049;SDS011;53955;52.442;13.284;2022-10-20T12:22:05;6.03;;;2.00;;
67049;SDS011;53955;52.442;13.284;2022-10-20T12:27:43;4.65;;;2.60;;
67049;SDS011;53955;52.442;13.284;2022-10-20T12:33:14;4.43;;;2.47;;
67049;SDS011;53955;52.442;13.284;2022-10-20T12:38:24;3.55;;;1.98;;
67049;SDS011;53955;52.442;13.284;2022-10-20T12:40:53;5.22;;;2.28;;
67049;SDS011;53955;52.442;13.284;2022-10-20T12:43:28;5.95;;;2.58;;
67049;SDS011;53955;52.442;13.284;2022-10-20T12:46:08;3.85;;;2.58;;
67049;SDS011;53955;52.442;13.284;2022-10-20T12:48:41;3.35;;;2.22;;
67049;SDS011;53955;52.442;13.284;2022-10-20T12:51:18;3.63;;;1.90;;
67049;SDS011;53955;52.442;13.284;2022-10-20T12:53:50;4.90;;;2.67;;
67049;SDS011;53955;52.442;13.284;2022-10-20T12:56:18;3.58;;;2.67;;
67049;SDS011;53955;52.442;13.284;2022-10-20T13:02:18;6.35;;;2.30;;
67049;SDS011;53955;52.442;13.284;2022-10-20T13:05:02;5.90;;;2.13;;
67049;SDS011;53955;52.442;13.284;2022-10-20T13:10:47;4.47;;;2.40;;
67049;SDS011;53955;52.442;13.284;2022-10-20T13:13:35;5.10;;;2.50;;
67049;SDS011;53955;52.442;13.284;2022-10-20T13:16:12;6.13;;;2.42;;
67049;SDS011;53955;52.442;13.284;2022-10-20T13:18:43;3.63;;;2.10;;
67049;SDS011;53955;52.442;13.284;2022-10-20T13:21:18;4.13;;;2.40;;
67049;SDS011;53955;52.442;13.284;2022-10-20T13:23:53;5.22;;;2.35;;
67049;SDS011;53955;52.442;13.284;2022-10-20T13:26:28;3.35;;;2.10;;
67049;SDS011;53955;52.442;13.284;2022-10-20T13:28:57;4.70;;;2.10;;
67049;SDS011;53955;52.442;13.284;2022-10-20T13:31:27;3.65;;;2.10;;
67049;SDS011;53955;52.442;13.284;2022-10-20T13:34:00;5.07;;;2.30;;
67049;SDS011;53955;52.442;13.284;2022-10-20T13:36:38;4.65;;;2.42;;
67049;SDS011;53955;52.442;13.284;2022-10-20T13:39:13;4.25;;;2.15;;
67049;SDS011;53955;52.442;13.284;2022-10-20T13:41:45;3.40;;;1.90;;
67049;SDS011;53955;52.442;13.284;2022-10-20T13:44:19;2.58;;;1.73;;
67049;SDS011;53955;52.442;13.284;2022-10-20T13:46:56;4.88;;;2.13;;
67049;SDS011;53955;52.442;13.284;2022-10-20T13:49:33;3.08;;;2.20;;
67049;SDS011;53955;52.442;13.284;2022-10-20T13:52:15;4.32;;;2.00;;
67049;SDS011;53955;52.442;13.284;2022-10-20T13:54:44;3.50;;;1.70;;
67049;SDS011;53955;52.442;13.284;2022-10-20T13:57:15;3.23;;;2.10;;
67049;SDS011;53955;52.442;13.284;2022-10-20T13:59:54;4.43;;;2.10;;
67049;SDS011;53955;52.442;13.284;2022-10-20T14:02:25;3.10;;;2.03;;
67049;SDS011;53955;52.442;13.284;2022-10-20T14:05:06;3.28;;;2.13;;
67049;SDS011;53955;52.442;13.284;2022-10-20T14:07:37;3.05;;;2.20;;
67049;SDS011;53955;52.442;13.284;2022-10-20T14:10:05;3.85;;;2.22;;
67049;SDS011;53955;52.442;13.284;2022-10-20T14:12:44;11.45;;;2.83;;
67049;SDS011;53955;52.442;13.284;2022-10-20T14:15:11;4.13;;;2.33;;
67049;SDS011;53955;52.442;13.284;2022-10-20T14:17:44;4.15;;;2.20;;
67049;SDS011;53955;52.442;13.284;2022-10-20T14:20:20;4.38;;;2.35;;
67049;SDS011;53955;52.442;13.284;2022-10-20T14:22:47;5.03;;;2.42;;
67049;SDS011;53955;52.442;13.284;2022-10-20T14:25:17;4.80;;;2.53;;
67049;SDS011;53955;52.442;13.284;2022-10-20T14:27:44;4.97;;;2.25;;
67049;SDS011;53955;52.442;13.284;2022-10-20T14:30:13;4.00;;;2.17;;
67049;SDS011;53955;52.442;13.284;2022-10-20T14:32:41;3.47;;;2.08;;
67049;SDS011;53955;52.442;13.284;2022-10-20T14:35:14;4.95;;;2.10;;
67049;SDS011;53955;52.442;13.284;2022-10-20T14:37:45;6.80;;;2.55;;
67049;SDS011;53955;52.442;13.284;2022-10-20T14:40:19;3.83;;;2.25;;
67049;SDS011;53955;52.442;13.284;2022-10-20T14:42:47;3.50;;;1.85;;
67049;SDS011;53955;52.442;13.284;2022-10-20T14:50:18;5.05;;;2.63;;
67049;SDS011;53955;52.442;13.284;2022-10-20T14:52:47;3.15;;;1.90;;
67049;SDS011;53955;52.442;13.284;2022-10-20T14:55:29;3.28;;;2.13;;
67049;SDS011;53955;52.442;13.284;2022-10-20T14:57:57;2.75;;;2.08;;
67049;SDS011;53955;52.442;13.284;2022-10-20T15:00:28;5.55;;;2.13;;
67049;SDS011;53955;52.442;13.284;2022-10-20T15:03:02;5.57;;;2.30;;
67049;SDS011;53955;52.442;13.284;2022-10-20T15:05:33;4.28;;;2.47;;
67049;SDS011;53955;52.442;13.284;2022-10-20T15:08:07;4.60;;;2.23;;
67049;SDS011;53955;52.442;13.284;2022-10-20T15:10:40;4.10;;;2.38;;
67049;SDS011;53955;52.442;13.284;2022-10-20T15:13:16;3.88;;;2.28;;
67049;SDS011;53955;52.442;13.284;2022-10-20T15:15:46;3.83;;;2.38;;
67049;SDS011;53955;52.442;13.284;2022-10-20T15:18:15;3.60;;;2.30;;
67049;SDS011;53955;52.442;13.284;2022-10-20T15:20:43;4.65;;;2.50;;
67049;SDS011;53955;52.442;13.284;2022-10-20T15:23:12;5.53;;;2.83;;
67049;SDS011;53955;52.442;13.284;2022-10-20T15:25:41;3.97;;;2.77;;
67049;SDS011;53955;52.442;13.284;2022-10-20T15:28:20;4.43;;;2.55;;
67049;SDS011;53955;52.442;13.284;2022-10-20T15:30:54;4.78;;;2.75;;
67049;SDS011;53955;52.442;13.284;2022-10-20T15:33:23;5.22;;;3.10;;
67049;SDS011;53955;52.442;13.284;2022-10-20T15:35:50;5.57;;;2.47;;
67049;SDS011;53955;52.442;13.284;2022-10-20T15:38:17;5.00;;;3.00;;
67049;SDS011;53955;52.442;13.284;2022-10-20T15:40:44;3.88;;;2.78;;
67049;SDS011;53955;52.442;13.284;2022-10-20T15:43:12;4.93;;;2.97;;
67049;SDS011;53955;52.442;13.284;2022-10-20T15:45:40;7.65;;;3.20;;
67049;SDS011;53955;52.442;13.284;2022-10-20T15:48:09;6.20;;;2.63;;
67049;SDS011;53955;52.442;13.284;2022-10-20T15:50:37;4.35;;;2.70;;
67049;SDS011;53955;52.442;13.284;2022-10-20T15:53:05;5.13;;;2.83;;
67049;SDS011;53955;52.442;13.284;2022-10-20T15:55:32;7.07;;;2.67;;
67049;SDS011;53955;52.442;13.284;2022-10-20T15:58:01;5.68;;;2.78;;
67049;SDS011;53955;52.442;13.284;2022-10-20T16:00:28;5.25;;;3.00;;
67049;SDS011;53955;52.442;13.284;2022-10-20T16:02:55;5.22;;;3.08;;
67049;SDS011;53955;52.442;13.284;2022-10-20T16:05:22;7.45;;;3.00;;
67049;SDS011;53955;52.442;13.284;2022-10-20T16:07:52;4.40;;;3.15;;
67049;SDS011;53955;52.442;13.284;2022-10-20T16:10:20;6.53;;;3.63;;
67049;SDS011;53955;52.442;13.284;2022-10-20T16:12:48;5.90;;;3.43;;
67049;SDS011;53955;52.442;13.284;2022-10-20T16:15:15;8.70;;;3.60;;
67049;SDS011;53955;52.442;13.284;2022-10-20T16:17:42;7.03;;;3.17;;
67049;SDS011;53955;52.442;13.284;2022-10-20T16:20:10;4.90;;;3.13;;
67049;SDS011;53955;52.442;13.284;2022-10-20T16:22:37;6.78;;;3.42;;
67049;SDS011;53955;52.442;13.284;2022-10-20T16:25:05;5.00;;;2.97;;
67049;SDS011;53955;52.442;13.284;2022-10-20T16:27:32;5.70;;;3.17;;
67049;SDS011;53955;52.442;13.284;2022-10-20T16:29:59;5.40;;;3.50;;